Archimede — IXZR — position and weather

sailwx.info

Track history (hours):
 
Tides and Currents Weather Stations Pressure Air Temp Water Temp Dewpoint Dewpoint Depression Visibility Wind Speed Wind Dir Waves Ship Positions

Archimede

Last reported at 2017-Aug-22 11:00 UTC. Time now 2017-Aug-22 11:09 UTC.
Position N 38°13' E 015°34'.

; draft 3 m.

Type: Passenger vessel. MMSI: 247054700.

Date/timePositionNaut miles runAvg speedWind from/ knotsBaromVisibWave heightAir tempDewpointWater temp
2017-Aug-22 11:00N 38°13' E 015°34'2 3.9
2017-Aug-22 10:30N 38°13' E 015°36'1 2.0
2017-Aug-22 10:00N 38°13' E 015°37'3 5.1
2017-Aug-22 09:30N 38°13' E 015°34'0 0.0
2017-Aug-22 09:00N 38°13' E 015°34'0 0.0
2017-Aug-22 08:30N 38°13' E 015°34'0 0.0
2017-Aug-22 08:00N 38°13' E 015°34'0 0.0
2017-Aug-21 16:40N 38°13' E 015°34'0 0.0
2017-Aug-21 16:30N 38°13' E 015°34'3 6.8
2017-Aug-21 16:00N 38°13' E 015°38'0 0.7
2017-Aug-21 15:30N 38°13' E 015°38'3 6.2
2017-Aug-21 15:00N 38°13' E 015°34'3 6.6
2017-Aug-21 14:31N 38°14' E 015°38'1 2.0
2017-Aug-21 14:00N 38°13' E 015°37'3 5.0
2017-Aug-21 13:30N 38°13' E 015°34'3 6.7
2017-Aug-21 13:00N 38°13' E 015°38'0 0.8
2017-Aug-21 12:30N 38°13' E 015°37'3 5.9
2017-Aug-21 12:00N 38°13' E 015°34'2 4.6
2017-Aug-21 11:30N 38°13' E 015°37'1 2.2
2017-Aug-21 11:00N 38°13' E 015°38'3 6.7
2017-Aug-21 10:30N 38°13' E 015°34'3 6.8
2017-Aug-21 10:00N 38°13' E 015°38'2 4.8
2017-Aug-21 09:30N 38°13' E 015°35'1 2.2
2017-Aug-21 09:00N 38°13' E 015°34'0 0.0
2017-Aug-21 08:30N 38°13' E 015°34'0 0.0
2017-Aug-20 16:46N 38°13' E 015°34'1 4.3
2017-Aug-20 16:30N 38°13' E 015°35'2 4.6
2017-Aug-20 16:00N 38°13' E 015°38'1 1.2
2017-Aug-20 15:30N 38°13' E 015°37'3 5.6
2017-Aug-20 15:00N 38°13' E 015°34'3 5.3
2017-Aug-20 14:30N 38°14' E 015°37'1 1.6
2017-Aug-20 14:00N 38°14' E 015°38'3 6.7
2017-Aug-20 13:30N 38°13' E 015°34'3 6.2
2017-Aug-20 13:00N 38°13' E 015°38'2 3.1
2017-Aug-20 12:30N 38°13' E 015°36'2 3.2
2017-Aug-20 12:00N 38°13' E 015°34'3 6.7
2017-Aug-20 11:31N 38°13' E 015°38'3 6.2
2017-Aug-20 11:00N 38°13' E 015°34'1 2.6
2017-Aug-20 10:30N 38°13' E 015°36'2 3.6
2017-Aug-20 10:00N 38°13' E 015°38'3 6.7
2017-Aug-20 09:30N 38°13' E 015°34'0 0.0
2017-Aug-19 17:15N 38°13' E 015°34'2 6.4
2017-Aug-19 17:00N 38°13' E 015°36'2 3.3
2017-Aug-19 16:30N 38°13' E 015°38'3 6.3
2017-Aug-19 16:00N 38°13' E 015°34'3 6.9
2017-Aug-19 15:31N 38°13' E 015°38'3 6.9
2017-Aug-19 15:01N 38°13' E 015°34'1 1.2
2017-Aug-19 14:00N 38°13' E 015°35'1 2.3
2017-Aug-19 13:30N 38°13' E 015°34'3 6.8
2017-Aug-19 13:00N 38°13' E 015°38'2 4.3
2017-Aug-19 12:31N 38°13' E 015°35'1 2.5
2017-Aug-19 12:01N 38°13' E 015°34'3 6.8
2017-Aug-19 11:30N 38°13' E 015°38'1 2.5
2017-Aug-19 11:00N 38°13' E 015°37'2 4.7
2017-Aug-19 10:30N 38°13' E 015°34'3 6.9
2017-Aug-19 10:00N 38°13' E 015°38'2 3.3
2017-Aug-19 09:30N 38°12' E 015°36'2 4.0
2017-Aug-19 09:00N 38°13' E 015°34'0 0.0
2017-Aug-18 15:42N 38°13' E 015°34'0 0.0
2017-Aug-18 15:30N 38°13' E 015°34'0 0.0
2017-Aug-18 15:00N 38°13' E 015°34'2 2.3
2017-Aug-18 14:00N 38°14' E 015°36'1 1.7
2017-Aug-18 13:31N 38°13' E 015°37'3 5.5
2017-Aug-18 13:00N 38°13' E 015°34'3 6.6
2017-Aug-18 12:30N 38°13' E 015°38'3 2.6
2017-Aug-18 11:26N 38°13' E 015°35'3 5.9
2017-Aug-18 10:59N 38°13' E 015°38'3 4.3
2017-Aug-18 10:12N 38°13' E 015°34'212.4
2017-Aug-18 10:00N 38°13' E 015°37'0 0.9
2017-Aug-18 09:30N 38°13' E 015°37'3 0.2
2017-Aug-17 16:12N 38°13' E 015°34'0 0.3
2017-Aug-17 15:52N 38°13' E 015°34'0 0.0
2017-Aug-17 15:30N 38°13' E 015°34'0 0.0
2017-Aug-17 15:00N 38°13' E 015°34'1 1.6
2017-Aug-17 14:31N 38°13' E 015°35'3 5.2
2017-Aug-17 14:01N 38°13' E 015°38'3 6.7
2017-Aug-17 13:30N 38°13' E 015°34'3 6.8
2017-Aug-17 13:01N 38°13' E 015°38'3 6.8
2017-Aug-17 12:31N 38°13' E 015°34'0 0.2
2017-Aug-17 12:01N 38°13' E 015°34'3 6.6
2017-Aug-17 11:31N 38°13' E 015°38'3 6.0
2017-Aug-17 11:01N 38°13' E 015°34'0 0.3
2017-Aug-17 10:30N 38°13' E 015°34'3 5.9
2017-Aug-17 10:00N 38°13' E 015°38'3 6.8
2017-Aug-17 09:31N 38°13' E 015°34'0 0.0
2017-Aug-17 09:01N 38°13' E 015°34'0 0.0
2017-Aug-16 16:01N 38°13' E 015°34'0 0.0
2017-Aug-16 16:00N 38°13' E 015°34'0 0.0
2017-Aug-16 15:31N 38°13' E 015°34'0 0.0
2017-Aug-16 15:00N 38°13' E 015°34'0 0.0
2017-Aug-16 14:30N 38°13' E 015°34'2 4.9
2017-Aug-16 14:01N 38°13' E 015°37'1 1.1
2017-Aug-16 13:30N 38°13' E 015°37'3 5.7
2017-Aug-16 13:00N 38°13' E 015°34'3 6.7
2017-Aug-16 12:31N 38°13' E 015°38'3 5.5
2017-Aug-16 12:01N 38°13' E 015°35'1 1.0
2017-Aug-16 11:31N 38°13' E 015°34'3 6.1
2017-Aug-16 11:00N 38°13' E 015°38'3 5.2
2017-Aug-16 10:30N 38°13' E 015°35'1 1.7
2017-Aug-16 10:00N 38°13' E 015°34'3 6.8
2017-Aug-16 09:30N 38°13' E 015°38'3 6.8
2017-Aug-16 09:00N 38°13' E 015°34'0 0.0
2017-Aug-14 15:41N 38°13' E 015°34'0 0.7
2017-Aug-14 15:30N 38°13' E 015°34'0 0.1
2017-Aug-14 15:01N 38°13' E 015°34'0 0.0
2017-Aug-14 14:30N 38°13' E 015°34'0 0.0
2017-Aug-14 14:00N 38°13' E 015°34'0 0.0
2017-Aug-14 13:30N 38°13' E 015°34'0 0.0
2017-Aug-14 13:00N 38°13' E 015°34'0 0.0
2017-Aug-14 12:30N 38°13' E 015°34'1 3.0
2017-Aug-14 12:00N 38°13' E 015°36'2 3.8
2017-Aug-14 11:30N 38°13' E 015°38'0 0.0
2017-Aug-14 11:01N 38°13' E 015°38'0 0.0
2017-Aug-14 10:30N 38°13' E 015°38'3 6.8
2017-Aug-14 10:00N 38°13' E 015°34'0 0.0
2017-Aug-14 09:31N 38°13' E 015°34'0 0.0
2017-Aug-14 09:00N 38°13' E 015°34'0 0.0
2017-Aug-13 16:34N 38°13' E 015°34'0 0.0
2017-Aug-13 16:29N 38°13' E 015°34'3 7.1
2017-Aug-13 16:00N 38°13' E 015°38'0 0.0
2017-Aug-13 15:30N 38°13' E 015°38'3 6.8
2017-Aug-13 15:00N 38°13' E 015°34'2 3.5
2017-Aug-13 14:30N 38°13' E 015°36'1 2.8
2017-Aug-13 14:00N 38°13' E 015°38'3 6.2
2017-Aug-13 13:30N 38°13' E 015°34'0 0.0
2017-Aug-13 13:00N 38°13' E 015°34'2 3.5
2017-Aug-13 12:30N 38°13' E 015°36'1 1.4
2017-Aug-13 12:00N 38°12' E 015°36'1 2.2
2017-Aug-13 11:30N 38°13' E 015°35'2 4.5
2017-Aug-13 11:00N 38°13' E 015°37'3 5.9
2017-Aug-13 10:30N 38°13' E 015°34'2 4.2
2017-Aug-13 10:00N 38°13' E 015°36'1 1.5
2017-Aug-13 09:30N 38°13' E 015°37'3 5.2
2017-Aug-13 09:00N 38°13' E 015°34'0 0.0
2017-Aug-12 16:22N 38°13' E 015°34'0 0.1
2017-Aug-12 16:00N 38°13' E 015°34'3 6.8
2017-Aug-12 15:31N 38°13' E 015°38'3 6.7
2017-Aug-12 15:00N 38°13' E 015°34'3 6.8
2017-Aug-12 14:31N 38°13' E 015°38'2 3.2
2017-Aug-12 14:00N 38°13' E 015°36'2 4.0
2017-Aug-12 13:31N 38°13' E 015°34'3 6.8
2017-Aug-12 13:00N 38°13' E 015°38'2 3.6
2017-Aug-12 12:30N 38°12' E 015°36'2 3.6
2017-Aug-12 12:00N 38°13' E 015°34'0 0.0
2017-Aug-12 11:30N 38°13' E 015°34'3 6.8
2017-Aug-12 11:00N 38°13' E 015°38'  
Track history (hours):
 
Tides and Currents Weather Stations Pressure Air Temp Water Temp Dewpoint Dewpoint Depression Visibility Wind Speed Wind Dir Waves Ship Positions

Archimede

Last reported at 2017-Aug-22 11:00 UTC. Time now 2017-Aug-22 11:09 UTC.
Position N 38°13' E 015°34'.

; draft 3 m.

Type: Passenger vessel. MMSI: 247054700.

Date/timePositionNaut miles runAvg speedWind from/ knotsBaromVisibWave heightAir tempDewpointWater temp
2017-Aug-22 11:00N 38°13' E 015°34'2 3.9
2017-Aug-22 10:30N 38°13' E 015°36'1 2.0
2017-Aug-22 10:00N 38°13' E 015°37'3 5.1
2017-Aug-22 09:30N 38°13' E 015°34'0 0.0
2017-Aug-22 09:00N 38°13' E 015°34'0 0.0
2017-Aug-22 08:30N 38°13' E 015°34'0 0.0
2017-Aug-22 08:00N 38°13' E 015°34'0 0.0
2017-Aug-21 16:40N 38°13' E 015°34'0 0.0
2017-Aug-21 16:30N 38°13' E 015°34'3 6.8
2017-Aug-21 16:00N 38°13' E 015°38'0 0.7
2017-Aug-21 15:30N 38°13' E 015°38'3 6.2
2017-Aug-21 15:00N 38°13' E 015°34'3 6.6
2017-Aug-21 14:31N 38°14' E 015°38'1 2.0
2017-Aug-21 14:00N 38°13' E 015°37'3 5.0
2017-Aug-21 13:30N 38°13' E 015°34'3 6.7
2017-Aug-21 13:00N 38°13' E 015°38'0 0.8
2017-Aug-21 12:30N 38°13' E 015°37'3 5.9
2017-Aug-21 12:00N 38°13' E 015°34'2 4.6
2017-Aug-21 11:30N 38°13' E 015°37'1 2.2
2017-Aug-21 11:00N 38°13' E 015°38'3 6.7
2017-Aug-21 10:30N 38°13' E 015°34'3 6.8
2017-Aug-21 10:00N 38°13' E 015°38'2 4.8
2017-Aug-21 09:30N 38°13' E 015°35'1 2.2
2017-Aug-21 09:00N 38°13' E 015°34'0 0.0
2017-Aug-21 08:30N 38°13' E 015°34'0 0.0
2017-Aug-20 16:46N 38°13' E 015°34'1 4.3
2017-Aug-20 16:30N 38°13' E 015°35'2 4.6
2017-Aug-20 16:00N 38°13' E 015°38'1 1.2
2017-Aug-20 15:30N 38°13' E 015°37'3 5.6
2017-Aug-20 15:00N 38°13' E 015°34'3 5.3
2017-Aug-20 14:30N 38°14' E 015°37'1 1.6
2017-Aug-20 14:00N 38°14' E 015°38'3 6.7
2017-Aug-20 13:30N 38°13' E 015°34'3 6.2
2017-Aug-20 13:00N 38°13' E 015°38'2 3.1
2017-Aug-20 12:30N 38°13' E 015°36'2 3.2
2017-Aug-20 12:00N 38°13' E 015°34'3 6.7
2017-Aug-20 11:31N 38°13' E 015°38'3 6.2
2017-Aug-20 11:00N 38°13' E 015°34'1 2.6
2017-Aug-20 10:30N 38°13' E 015°36'2 3.6
2017-Aug-20 10:00N 38°13' E 015°38'3 6.7
2017-Aug-20 09:30N 38°13' E 015°34'0 0.0
2017-Aug-19 17:15N 38°13' E 015°34'2 6.4
2017-Aug-19 17:00N 38°13' E 015°36'2 3.3
2017-Aug-19 16:30N 38°13' E 015°38'3 6.3
2017-Aug-19 16:00N 38°13' E 015°34'3 6.9
2017-Aug-19 15:31N 38°13' E 015°38'3 6.9
2017-Aug-19 15:01N 38°13' E 015°34'1 1.2
2017-Aug-19 14:00N 38°13' E 015°35'1 2.3
2017-Aug-19 13:30N 38°13' E 015°34'3 6.8
2017-Aug-19 13:00N 38°13' E 015°38'2 4.3
2017-Aug-19 12:31N 38°13' E 015°35'1 2.5
2017-Aug-19 12:01N 38°13' E 015°34'3 6.8
2017-Aug-19 11:30N 38°13' E 015°38'1 2.5
2017-Aug-19 11:00N 38°13' E 015°37'2 4.7
2017-Aug-19 10:30N 38°13' E 015°34'3 6.9
2017-Aug-19 10:00N 38°13' E 015°38'2 3.3
2017-Aug-19 09:30N 38°12' E 015°36'2 4.0
2017-Aug-19 09:00N 38°13' E 015°34'0 0.0
2017-Aug-18 15:42N 38°13' E 015°34'0 0.0
2017-Aug-18 15:30N 38°13' E 015°34'0 0.0
2017-Aug-18 15:00N 38°13' E 015°34'2 2.3
2017-Aug-18 14:00N 38°14' E 015°36'1 1.7
2017-Aug-18 13:31N 38°13' E 015°37'3 5.5
2017-Aug-18 13:00N 38°13' E 015°34'3 6.6
2017-Aug-18 12:30N 38°13' E 015°38'3 2.6
2017-Aug-18 11:26N 38°13' E 015°35'3 5.9
2017-Aug-18 10:59N 38°13' E 015°38'3 4.3
2017-Aug-18 10:12N 38°13' E 015°34'212.4
2017-Aug-18 10:00N 38°13' E 015°37'0 0.9
2017-Aug-18 09:30N 38°13' E 015°37'3 0.2
2017-Aug-17 16:12N 38°13' E 015°34'0 0.3
2017-Aug-17 15:52N 38°13' E 015°34'0 0.0
2017-Aug-17 15:30N 38°13' E 015°34'0 0.0
2017-Aug-17 15:00N 38°13' E 015°34'1 1.6
2017-Aug-17 14:31N 38°13' E 015°35'3 5.2
2017-Aug-17 14:01N 38°13' E 015°38'3 6.7
2017-Aug-17 13:30N 38°13' E 015°34'3 6.8
2017-Aug-17 13:01N 38°13' E 015°38'3 6.8
2017-Aug-17 12:31N 38°13' E 015°34'0 0.2
2017-Aug-17 12:01N 38°13' E 015°34'3 6.6
2017-Aug-17 11:31N 38°13' E 015°38'3 6.0
2017-Aug-17 11:01N 38°13' E 015°34'0 0.3
2017-Aug-17 10:30N 38°13' E 015°34'3 5.9
2017-Aug-17 10:00N 38°13' E 015°38'3 6.8
2017-Aug-17 09:31N 38°13' E 015°34'0 0.0
2017-Aug-17 09:01N 38°13' E 015°34'0 0.0
2017-Aug-16 16:01N 38°13' E 015°34'0 0.0
2017-Aug-16 16:00N 38°13' E 015°34'0 0.0
2017-Aug-16 15:31N 38°13' E 015°34'0 0.0
2017-Aug-16 15:00N 38°13' E 015°34'0 0.0
2017-Aug-16 14:30N 38°13' E 015°34'2 4.9
2017-Aug-16 14:01N 38°13' E 015°37'1 1.1
2017-Aug-16 13:30N 38°13' E 015°37'3 5.7
2017-Aug-16 13:00N 38°13' E 015°34'3 6.7
2017-Aug-16 12:31N 38°13' E 015°38'3 5.5
2017-Aug-16 12:01N 38°13' E 015°35'1 1.0
2017-Aug-16 11:31N 38°13' E 015°34'3 6.1
2017-Aug-16 11:00N 38°13' E 015°38'3 5.2
2017-Aug-16 10:30N 38°13' E 015°35'1 1.7
2017-Aug-16 10:00N 38°13' E 015°34'3 6.8
2017-Aug-16 09:30N 38°13' E 015°38'3 6.8
2017-Aug-16 09:00N 38°13' E 015°34'0 0.0
2017-Aug-14 15:41N 38°13' E 015°34'0 0.7
2017-Aug-14 15:30N 38°13' E 015°34'0 0.1
2017-Aug-14 15:01N 38°13' E 015°34'0 0.0
2017-Aug-14 14:30N 38°13' E 015°34'0 0.0
2017-Aug-14 14:00N 38°13' E 015°34'0 0.0
2017-Aug-14 13:30N 38°13' E 015°34'0 0.0
2017-Aug-14 13:00N 38°13' E 015°34'0 0.0
2017-Aug-14 12:30N 38°13' E 015°34'1 3.0
2017-Aug-14 12:00N 38°13' E 015°36'2 3.8
2017-Aug-14 11:30N 38°13' E 015°38'0 0.0
2017-Aug-14 11:01N 38°13' E 015°38'0 0.0
2017-Aug-14 10:30N 38°13' E 015°38'3 6.8
2017-Aug-14 10:00N 38°13' E 015°34'0 0.0
2017-Aug-14 09:31N 38°13' E 015°34'0 0.0
2017-Aug-14 09:00N 38°13' E 015°34'0 0.0
2017-Aug-13 16:34N 38°13' E 015°34'0 0.0
2017-Aug-13 16:29N 38°13' E 015°34'3 7.1
2017-Aug-13 16:00N 38°13' E 015°38'0 0.0
2017-Aug-13 15:30N 38°13' E 015°38'3 6.8
2017-Aug-13 15:00N 38°13' E 015°34'2 3.5
2017-Aug-13 14:30N 38°13' E 015°36'1 2.8
2017-Aug-13 14:00N 38°13' E 015°38'3 6.2
2017-Aug-13 13:30N 38°13' E 015°34'0 0.0
2017-Aug-13 13:00N 38°13' E 015°34'2 3.5
2017-Aug-13 12:30N 38°13' E 015°36'1 1.4
2017-Aug-13 12:00N 38°12' E 015°36'1 2.2
2017-Aug-13 11:30N 38°13' E 015°35'2 4.5
2017-Aug-13 11:00N 38°13' E 015°37'3 5.9
2017-Aug-13 10:30N 38°13' E 015°34'2 4.2
2017-Aug-13 10:00N 38°13' E 015°36'1 1.5
2017-Aug-13 09:30N 38°13' E 015°37'3 5.2
2017-Aug-13 09:00N 38°13' E 015°34'0 0.0
2017-Aug-12 16:22N 38°13' E 015°34'0 0.1
2017-Aug-12 16:00N 38°13' E 015°34'3 6.8
2017-Aug-12 15:31N 38°13' E 015°38'3 6.7
2017-Aug-12 15:00N 38°13' E 015°34'3 6.8
2017-Aug-12 14:31N 38°13' E 015°38'2 3.2
2017-Aug-12 14:00N 38°13' E 015°36'2 4.0
2017-Aug-12 13:31N 38°13' E 015°34'3 6.8
2017-Aug-12 13:00N 38°13' E 015°38'2 3.6
2017-Aug-12 12:30N 38°12' E 015°36'2 3.6
2017-Aug-12 12:00N 38°13' E 015°34'0 0.0
2017-Aug-12 11:30N 38°13' E 015°34'3 6.8
2017-Aug-12 11:00N 38°13' E 015°38'  

Dump ship's entire track history